Time;durP1;ratioP1;P1;durP2;ratioP2;P2;SDS_P1;SDS_P2;PMS_P1;PMS_P2;Temp;Humidity;BMP_temperature;BMP_pressure;BME280_temperature;BME280_humidity;BME280_pressure;Samples;Min_cycle;Max_cycle;Signal;HPM_P1;HPM_P2
2021/04/26 00:00:22;;;;;;;1.00;0.88;;;4.00;93.30;;;;;;5018758;28;20112;-55
2021/04/26 00:02:48;;;;;;;3.83;0.85;;;4.00;93.90;;;;;;5018648;28;20113;-50
2021/04/26 00:05:14;;;;;;;2.20;1.05;;;3.90;94.20;;;;;;5018036;28;20440;-52
2021/04/26 00:07:40;;;;;;;2.80;1.05;;;3.80;94.80;;;;;;5017816;28;20020;-50
2021/04/26 00:10:07;;;;;;;2.85;0.80;;;3.80;95.40;;;;;;5014718;28;20018;-48
2021/04/26 00:12:33;;;;;;;2.78;1.15;;;3.70;96.00;;;;;;5016732;28;20072;-49
2021/04/26 00:14:58;;;;;;;1.25;0.80;;;3.60;96.10;;;;;;4999817;28;20029;-50
2021/04/26 00:17:24;;;;;;;3.17;0.80;;;3.60;96.40;;;;;;5018275;28;20025;-53
2021/04/26 00:19:49;;;;;;;1.48;1.05;;;3.50;97.00;;;;;;5017597;28;20100;-53
2021/04/26 00:22:15;;;;;;;2.10;1.20;;;3.50;97.90;;;;;;5018497;28;20080;-51
2021/04/26 00:24:41;;;;;;;1.95;0.98;;;3.40;98.20;;;;;;5018530;28;20147;-48
2021/04/26 00:27:07;;;;;;;1.45;0.90;;;3.40;99.20;;;;;;5018619;28;20022;-48
2021/04/26 00:29:33;;;;;;;2.05;1.00;;;3.30;99.00;;;;;;5017337;28;20040;-52
2021/04/26 00:31:59;;;;;;;0.82;0.57;;;3.30;99.20;;;;;;5018535;28;20052;-51
2021/04/26 00:34:24;;;;;;;1.60;0.82;;;3.30;99.80;;;;;;5018308;28;20388;-51
2021/04/26 00:36:50;;;;;;;2.50;1.20;;;3.20;99.90;;;;;;5018182;28;20420;-52
2021/04/26 00:39:16;;;;;;;1.90;0.73;;;3.20;99.90;;;;;;5017662;28;20025;-53
2021/04/26 00:41:41;;;;;;;1.42;0.98;;;3.10;99.90;;;;;;5000440;28;20108;-51
2021/04/26 00:44:07;;;;;;;1.40;0.73;;;3.10;99.90;;;;;;5018210;28;20014;-50
2021/04/26 00:46:33;;;;;;;6.57;1.45;;;3.00;99.90;;;;;;5017628;28;20097;-53
2021/04/26 00:48:59;;;;;;;2.65;1.75;;;2.90;99.90;;;;;;5015911;28;20029;-52
2021/04/26 00:51:24;;;;;;;2.13;1.30;;;2.90;99.90;;;;;;5017389;28;20044;-57
2021/04/26 00:53:51;;;;;;;2.20;1.23;;;2.80;99.90;;;;;;5017204;28;20033;-49
2021/04/26 00:56:16;;;;;;;2.17;1.00;;;2.80;99.90;;;;;;5001056;28;20650;-51
2021/04/26 00:58:42;;;;;;;1.48;1.27;;;2.70;99.90;;;;;;4994333;28;20014;-53
2021/04/26 01:01:08;;;;;;;1.40;0.90;;;2.60;99.90;;;;;;5014911;28;20022;-50
2021/04/26 01:03:35;;;;;;;4.82;1.10;;;2.50;99.90;;;;;;5014171;28;20025;-52
2021/04/26 01:06:00;;;;;;;3.05;1.13;;;2.50;99.90;;;;;;5016309;28;20036;-50
2021/04/26 01:08:26;;;;;;;2.15;1.02;;;2.50;99.90;;;;;;5016427;28;20400;-54
2021/04/26 01:10:52;;;;;;;1.23;0.90;;;2.50;99.90;;;;;;5015078;28;20030;-52
2021/04/26 01:13:36;;;;;;;1.95;1.23;;;2.40;99.90;;;;;;5017081;28;20044;-53
2021/04/26 01:16:08;;;;;;;3.08;1.17;;;2.30;99.90;;;;;;5017180;28;20021;-52
2021/04/26 01:19:08;;;;;;;5.15;0.98;;;2.30;99.90;;;;;;5016487;28;20053;-55
2021/04/26 01:21:58;;;;;;;1.23;0.80;;;2.30;99.90;;;;;;5013056;28;20049;-55
2021/04/26 01:24:36;;;;;;;2.80;1.00;;;2.20;99.90;;;;;;5017228;28;20021;-54
2021/04/26 01:27:31;;;;;;;2.63;1.60;;;2.10;99.90;;;;;;5017536;28;20080;-51
2021/04/26 01:30:06;;;;;;;1.58;1.23;;;2.00;99.90;;;;;;5015565;28;20032;-51
2021/04/26 01:32:53;;;;;;;2.10;0.93;;;2.00;99.90;;;;;;5016216;28;20388;-49
2021/04/26 01:35:21;;;;;;;2.25;0.90;;;2.00;99.90;;;;;;5015171;28;20126;-54
2021/04/26 01:37:54;;;;;;;1.05;0.75;;;1.90;99.90;;;;;;5017020;28;20038;-50
2021/04/26 01:40:21;;;;;;;2.97;1.10;;;1.90;99.90;;;;;;5016845;28;20488;-56
2021/04/26 01:42:53;;;;;;;1.95;0.90;;;1.80;99.90;;;;;;5017244;28;20021;-52
2021/04/26 01:45:19;;;;;;;1.42;1.02;;;1.80;99.90;;;;;;5017690;28;20028;-52
2021/04/26 01:47:46;;;;;;;4.25;0.90;;;1.80;99.90;;;;;;5017072;28;20524;-51
2021/04/26 01:50:14;;;;;;;3.45;0.82;;;1.80;99.90;;;;;;5016793;28;20181;-54
2021/04/26 01:52:39;;;;;;;1.00;0.70;;;1.70;99.90;;;;;;5016718;28;20030;-52
2021/04/26 01:55:08;;;;;;;1.27;0.80;;;1.70;99.90;;;;;;5016777;28;20038;-54
2021/04/26 01:57:36;;;;;;;2.38;0.98;;;1.70;99.90;;;;;;4997870;28;20030;-47
2021/04/26 02:00:12;;;;;;;1.20;1.00;;;1.70;99.90;;;;;;5020393;28;20026;-49
2021/04/26 02:02:38;;;;;;;2.08;0.80;;;1.60;99.90;;;;;;5020488;28;20041;-51
2021/04/26 02:05:06;;;;;;;3.45;0.93;;;1.60;99.90;;;;;;5002018;28;20026;-49
2021/04/26 02:07:32;;;;;;;1.38;0.73;;;1.60;99.90;;;;;;5002723;28;20057;-49
2021/04/26 02:09:58;;;;;;;1.88;0.88;;;1.50;99.90;;;;;;5053315;22;20049;-56
2021/04/26 02:12:25;;;;;;;2.33;0.80;;;1.40;99.90;;;;;;5038553;28;20376;-56
2021/04/26 02:14:50;;;;;;;3.55;0.90;;;1.40;99.90;;;;;;5022408;28;20037;-56
2021/04/26 02:17:16;;;;;;;2.30;1.20;;;1.40;99.90;;;;;;5037112;28;20029;-55
2021/04/26 02:19:42;;;;;;;0.98;0.88;;;1.30;99.90;;;;;;5027078;28;20021;-54
2021/04/26 02:22:10;;;;;;;1.73;1.27;;;1.30;99.90;;;;;;5020883;28;20018;-58
2021/04/26 02:24:35;;;;;;;1.35;1.13;;;1.30;99.90;;;;;;5020731;28;20476;-56
2021/04/26 02:27:02;;;;;;;2.40;0.90;;;1.20;99.90;;;;;;5002858;28;20088;-58
2021/04/26 02:29:27;;;;;;;1.83;1.20;;;1.20;99.90;;;;;;5019989;28;20018;-58
2021/04/26 02:32:00;;;;;;;1.48;0.95;;;1.20;99.90;;;;;;5020409;28;20036;-54
2021/04/26 02:34:32;;;;;;;1.08;0.98;;;1.10;99.90;;;;;;5020428;28;20021;-54
2021/04/26 02:37:07;;;;;;;2.15;0.90;;;1.10;99.90;;;;;;5020916;28;20112;-57
2021/04/26 02:39:34;;;;;;;2.22;1.02;;;1.10;99.90;;;;;;5020071;28;20018;-56
2021/04/26 02:42:02;;;;;;;3.42;1.10;;;1.00;99.90;;;;;;5020775;28;20018;-58
2021/04/26 02:44:30;;;;;;;4.30;1.23;;;1.00;99.90;;;;;;5019602;28;20076;-55
2021/04/26 02:47:05;;;;;;;1.33;1.20;;;1.00;99.90;;;;;;5003927;28;20034;-52
2021/04/26 02:49:32;;;;;;;1.00;0.88;;;0.90;99.90;;;;;;5018994;28;20412;-54
2021/04/26 02:51:57;;;;;;;3.28;0.80;;;0.90;99.90;;;;;;5001962;28;20025;-56
2021/04/26 02:54:24;;;;;;;2.05;0.82;;;0.90;99.90;;;;;;5002107;28;20036;-53
2021/04/26 02:56:51;;;;;;;1.27;0.90;;;0.80;99.90;;;;;;5020104;28;20060;-57
2021/04/26 02:59:20;;;;;;;2.75;0.85;;;0.80;99.90;;;;;;5018627;28;20929;-57
2021/04/26 03:01:47;;;;;;;1.38;0.93;;;0.80;99.90;;;;;;5019390;28;20014;-57
2021/04/26 03:04:16;;;;;;;5.13;1.25;;;0.80;99.90;;;;;;5020252;28;20034;-55
2021/04/26 03:06:43;;;;;;;1.95;0.82;;;0.80;99.90;;;;;;5020395;28;20671;-54
2021/04/26 03:09:10;;;;;;;1.20;0.60;;;0.70;99.90;;;;;;5019527;28;20033;-58
2021/04/26 03:11:36;;;;;;;1.25;0.98;;;0.70;99.90;;;;;;5001598;28;20026;-51
2021/04/26 03:14:02;;;;;;;1.63;1.20;;;0.60;99.90;;;;;;5019946;28;20057;-54
2021/04/26 03:16:28;;;;;;;1.75;0.70;;;0.60;99.90;;;;;;5020344;28;20399;-54
2021/04/26 03:18:54;;;;;;;1.42;0.90;;;0.70;99.90;;;;;;5001419;28;20025;-56
2021/04/26 03:21:20;;;;;;;2.75;1.00;;;0.60;99.90;;;;;;5019087;28;20048;-54
2021/04/26 03:23:46;;;;;;;1.83;1.30;;;0.60;99.90;;;;;;5019229;28;20400;-55
2021/04/26 03:26:12;;;;;;;1.92;1.13;;;0.60;99.90;;;;;;5020154;28;20025;-55
2021/04/26 03:28:41;;;;;;;1.98;0.93;;;0.60;99.90;;;;;;5020075;28;20032;-56
2021/04/26 03:31:07;;;;;;;3.40;1.30;;;0.60;99.90;;;;;;5018580;28;20435;-55
2021/04/26 03:33:34;;;;;;;2.80;1.05;;;0.60;99.90;;;;;;5019251;28;20026;-56
2021/04/26 03:36:01;;;;;;;3.97;0.90;;;0.60;99.90;;;;;;5018870;28;20013;-57
2021/04/26 03:38:28;;;;;;;2.13;1.10;;;0.60;99.90;;;;;;5018439;28;20116;-54
2021/04/26 03:40:54;;;;;;;1.40;1.20;;;0.60;99.90;;;;;;5018986;28;20025;-55
2021/04/26 03:43:20;;;;;;;2.28;1.10;;;0.50;99.90;;;;;;5018483;28;20045;-55
2021/04/26 03:45:48;;;;;;;1.20;0.85;;;0.50;99.90;;;;;;5018766;28;20506;-54
2021/04/26 03:48:13;;;;;;;5.13;1.50;;;0.40;99.90;;;;;;5019112;28;20056;-56
2021/04/26 03:50:39;;;;;;;3.05;1.15;;;0.40;99.90;;;;;;5018173;28;20056;-57
2021/04/26 03:53:04;;;;;;;3.20;1.50;;;0.40;99.90;;;;;;5019397;28;20042;-53
2021/04/26 03:55:30;;;;;;;5.65;1.67;;;0.30;99.90;;;;;;5018582;28;20037;-57
2021/04/26 03:57:55;;;;;;;2.95;1.20;;;0.30;99.90;;;;;;5001495;28;20036;-52
2021/04/26 04:00:22;;;;;;;1.45;1.33;;;0.30;99.90;;;;;;5018615;28;20024;-55
2021/04/26 04:02:48;;;;;;;1.48;1.20;;;0.20;99.90;;;;;;5018526;28;20076;-53
2021/04/26 04:05:15;;;;;;;1.95;1.50;;;0.20;99.90;;;;;;5017967;28;20027;-54
2021/04/26 04:07:41;;;;;;;1.77;1.20;;;0.20;99.90;;;;;;5018629;28;20018;-54
2021/04/26 04:10:09;;;;;;;2.33;1.15;;;0.20;99.90;;;;;;5018643;28;20042;-57
2021/04/26 04:12:35;;;;;;;1.58;0.95;;;0.20;99.90;;;;;;5018210;28;20495;-55
2021/04/26 04:15:01;;;;;;;2.35;1.20;;;0.30;99.90;;;;;;5018554;28;20064;-54
2021/04/26 04:17:27;;;;;;;3.95;1.42;;;0.30;99.90;;;;;;5017165;28;20035;-56
2021/04/26 04:19:53;;;;;;;2.05;1.40;;;0.20;99.90;;;;;;5018952;28;20086;-51
2021/04/26 04:22:19;;;;;;;2.75;1.52;;;0.20;99.90;;;;;;5017300;28;20041;-55
2021/04/26 04:24:44;;;;;;;2.47;1.15;;;0.30;99.90;;;;;;5018764;28;20272;-53
2021/04/26 04:27:11;;;;;;;3.13;1.23;;;0.30;99.90;;;;;;5000695;28;20103;-51
2021/04/26 04:29:36;;;;;;;3.40;1.55;;;0.30;99.90;;;;;;5018320;28;20436;-55
2021/04/26 04:32:02;;;;;;;3.00;1.52;;;0.40;99.90;;;;;;5018312;28;20117;-55
2021/04/26 04:34:28;;;;;;;3.08;1.45;;;0.40;99.90;;;;;;5018060;28;20025;-56
2021/04/26 04:36:53;;;;;;;3.55;1.45;;;0.40;99.90;;;;;;5017563;28;20105;-56
2021/04/26 04:39:19;;;;;;;2.45;1.17;;;0.40;99.90;;;;;;5016800;28;20026;-55
2021/04/26 04:41:45;;;;;;;3.72;1.40;;;0.40;99.90;;;;;;5015817;28;20419;-54
2021/04/26 04:44:11;;;;;;;5.30;1.48;;;0.50;99.90;;;;;;5015394;28;20038;-53
2021/04/26 04:46:36;;;;;;;4.40;1.50;;;0.50;99.90;;;;;;5015371;28;20032;-55
2021/04/26 04:49:02;;;;;;;3.88;1.70;;;0.60;99.90;;;;;;5010085;28;20092;-56
2021/04/26 04:51:28;;;;;;;4.05;1.88;;;0.60;99.90;;;;;;5013366;28;20121;-56
2021/04/26 04:53:53;;;;;;;6.45;2.40;;;0.60;99.90;;;;;;5017854;28;20128;-55
2021/04/26 04:56:19;;;;;;;5.60;1.85;;;0.60;99.90;;;;;;5018881;28;20022;-52
2021/04/26 04:58:45;;;;;;;5.60;1.95;;;0.60;99.90;;;;;;5017236;28;20097;-55
2021/04/26 05:01:11;;;;;;;3.25;1.83;;;0.70;99.90;;;;;;5014452;28;20456;-56
2021/04/26 05:03:37;;;;;;;2.10;1.65;;;0.70;99.90;;;;;;5013311;28;20022;-55
2021/04/26 05:06:02;;;;;;;4.28;1.80;;;0.70;99.90;;;;;;5015533;28;20018;-56
2021/04/26 05:08:28;;;;;;;2.72;1.30;;;0.80;99.90;;;;;;5014710;28;20026;-54
2021/04/26 05:10:53;;;;;;;2.20;1.38;;;0.80;99.90;;;;;;5012563;28;20026;-53
2021/04/26 05:13:19;;;;;;;3.58;1.25;;;0.90;99.90;;;;;;5015382;28;20083;-54
2021/04/26 05:15:44;;;;;;;2.15;1.20;;;1.00;99.90;;;;;;5012860;28;20026;-56
2021/04/26 05:18:10;;;;;;;1.85;1.20;;;1.00;99.90;;;;;;5014049;28;20040;-57
2021/04/26 05:20:39;;;;;;;2.17;1.30;;;1.10;99.90;;;;;;5012530;28;20127;-57
2021/04/26 05:23:05;;;;;;;3.35;1.38;;;1.20;99.90;;;;;;5011898;28;20484;-56
2021/04/26 05:25:30;;;;;;;3.70;1.50;;;1.30;99.90;;;;;;4992304;28;20032;-57
2021/04/26 05:27:56;;;;;;;2.05;1.52;;;1.30;99.90;;;;;;5011185;28;20025;-57
2021/04/26 05:30:22;;;;;;;2.25;1.33;;;1.40;99.90;;;;;;5009630;28;20060;-55
2021/04/26 05:32:48;;;;;;;3.42;1.67;;;1.50;99.90;;;;;;5007116;28;20097;-57
2021/04/26 05:35:14;;;;;;;2.95;1.40;;;1.60;99.90;;;;;;5012020;28;20044;-55
2021/04/26 05:37:39;;;;;;;3.03;1.10;;;1.70;99.90;;;;;;5010182;28;20037;-57
2021/04/26 05:40:06;;;;;;;1.77;1.30;;;1.70;99.90;;;;;;5006624;28;20030;-55
2021/04/26 05:42:31;;;;;;;4.55;1.38;;;1.80;99.90;;;;;;5004406;28;20038;-56
2021/04/26 05:44:57;;;;;;;2.60;1.65;;;1.90;99.90;;;;;;5013513;28;20025;-57
2021/04/26 05:47:22;;;;;;;3.67;1.48;;;1.90;99.90;;;;;;5015576;28;20767;-55
2021/04/26 05:49:48;;;;;;;1.17;1.08;;;2.00;99.90;;;;;;5013181;28;20576;-60
2021/04/26 05:52:14;;;;;;;1.80;1.33;;;2.00;99.90;;;;;;5016189;28;20029;-54
2021/04/26 05:54:39;;;;;;;1.45;1.00;;;2.10;99.90;;;;;;5014095;28;20112;-55
2021/04/26 05:57:05;;;;;;;2.97;1.20;;;2.10;99.90;;;;;;5015927;28;20033;-54
2021/04/26 05:59:31;;;;;;;3.30;1.60;;;2.30;99.90;;;;;;5015921;28;20088;-56
2021/04/26 06:01:56;;;;;;;1.73;1.20;;;2.30;99.90;;;;;;4999412;28;20038;-56
2021/04/26 06:04:22;;;;;;;2.50;1.10;;;2.40;99.90;;;;;;5017246;28;20030;-57
2021/04/26 06:06:48;;;;;;;3.72;1.35;;;2.40;99.90;;;;;;5017601;28;20109;-54
2021/04/26 06:09:13;;;;;;;5.22;1.58;;;2.50;99.90;;;;;;5016427;28;20037;-57
2021/04/26 06:11:39;;;;;;;1.20;1.00;;;2.50;99.90;;;;;;5016074;28;20030;-56
2021/04/26 06:14:04;;;;;;;3.42;1.33;;;2.60;99.90;;;;;;5014873;28;20488;-58
2021/04/26 06:16:30;;;;;;;4.15;1.10;;;2.70;99.90;;;;;;5014321;28;20018;-57
2021/04/26 06:18:55;;;;;;;4.15;1.20;;;2.80;99.90;;;;;;5014518;28;20022;-57
2021/04/26 06:21:21;;;;;;;5.55;1.38;;;3.00;99.90;;;;;;5016185;28;20029;-55
2021/04/26 06:23:46;;;;;;;2.38;1.48;;;3.20;99.90;;;;;;5017889;28;20029;-58
2021/04/26 06:26:12;;;;;;;3.72;1.38;;;3.30;99.90;;;;;;5017156;28;20400;-56
2021/04/26 06:28:38;;;;;;;1.88;1.33;;;3.50;99.90;;;;;;5016740;28;20048;-57
2021/04/26 06:31:03;;;;;;;2.00;1.00;;;3.60;99.90;;;;;;5012833;28;20712;-56
2021/04/26 06:33:29;;;;;;;1.38;1.15;;;3.70;99.90;;;;;;5015166;28;20029;-57
2021/04/26 06:35:55;;;;;;;1.40;1.00;;;3.80;99.90;;;;;;5016896;28;20053;-57
2021/04/26 06:38:21;;;;;;;2.28;1.20;;;3.90;99.90;;;;;;5016351;28;20372;-58
2021/04/26 06:40:48;;;;;;;2.38;1.33;;;4.00;99.90;;;;;;5016416;28;20033;-56
2021/04/26 06:43:15;;;;;;;2.92;1.13;;;4.10;99.90;;;;;;4998659;28;20025;-57
2021/04/26 06:45:42;;;;;;;2.45;1.13;;;4.20;99.90;;;;;;5019570;28;20153;-54
2021/04/26 06:48:09;;;;;;;2.03;1.45;;;4.30;99.90;;;;;;5020057;28;20610;-58
2021/04/26 06:50:35;;;;;;;2.67;1.20;;;4.40;99.90;;;;;;5020175;28;20400;-55
2021/04/26 06:53:01;;;;;;;5.55;1.40;;;4.60;99.90;;;;;;5019798;28;20017;-56
2021/04/26 06:55:26;;;;;;;2.33;1.10;;;5.00;99.90;;;;;;5020198;28;20508;-56
2021/04/26 06:57:53;;;;;;;1.92;1.15;;;5.30;99.90;;;;;;5001399;28;20140;-58
2021/04/26 07:00:20;;;;;;;1.60;1.08;;;5.70;99.90;;;;;;5016071;28;20030;-56
2021/04/26 07:02:49;;;;;;;4.50;1.15;;;6.00;99.90;;;;;;5015899;28;20021;-57
2021/04/26 07:05:15;;;;;;;2.30;1.13;;;6.20;99.90;;;;;;5019020;28;20041;-56
2021/04/26 07:07:41;;;;;;;2.35;0.90;;;6.30;99.90;;;;;;5019234;28;20033;-58
2021/04/26 07:10:07;;;;;;;2.08;1.27;;;6.60;99.90;;;;;;5018005;28;20045;-57
2021/04/26 07:12:33;;;;;;;3.10;0.90;;;7.00;99.90;;;;;;5018398;28;20500;-54
2021/04/26 07:14:59;;;;;;;1.13;0.82;;;7.40;99.00;;;;;;5019410;28;20033;-57
2021/04/26 07:17:25;;;;;;;2.35;0.90;;;7.70;98.00;;;;;;5018442;28;20033;-56
2021/04/26 07:19:51;;;;;;;1.50;0.60;;;8.10;96.90;;;;;;5018765;28;20097;-55
2021/04/26 07:22:16;;;;;;;1.05;0.60;;;8.50;95.60;;;;;;5020443;28;20104;-57
2021/04/26 07:24:42;;;;;;;1.10;0.65;;;8.80;93.10;;;;;;5019879;28;20483;-57
2021/04/26 07:27:08;;;;;;;0.95;0.65;;;9.10;90.20;;;;;;5019368;28;20563;-54
2021/04/26 07:29:34;;;;;;;0.80;0.70;;;9.40;84.70;;;;;;5017941;28;20466;-57
2021/04/26 07:31:59;;;;;;;3.03;0.68;;;9.50;84.60;;;;;;5020899;28;20026;-58
2021/04/26 07:34:25;;;;;;;1.15;0.70;;;9.30;78.80;;;;;;5018388;28;20124;-58
2021/04/26 07:36:51;;;;;;;4.35;0.50;;;9.20;80.10;;;;;;5018365;28;20093;-58
2021/04/26 07:39:19;;;;;;;2.38;0.75;;;9.30;83.40;;;;;;5018260;28;20041;-56
2021/04/26 07:41:45;;;;;;;2.05;0.52;;;9.40;79.60;;;;;;5019442;28;20072;-58
2021/04/26 07:44:11;;;;;;;1.25;0.63;;;9.40;76.70;;;;;;5019093;28;20045;-58
2021/04/26 07:46:36;;;;;;;0.98;0.52;;;9.50;75.70;;;;;;5017386;28;20044;-54
2021/04/26 07:49:02;;;;;;;2.97;0.93;;;9.60;76.70;;;;;;5000990;28;20473;-54
2021/04/26 07:51:28;;;;;;;1.80;0.90;;;9.80;70.20;;;;;;5018526;28;20537;-56
2021/04/26 07:53:54;;;;;;;2.42;0.60;;;9.70;71.10;;;;;;5019682;28;20068;-58
2021/04/26 07:56:19;;;;;;;2.35;0.80;;;9.70;68.90;;;;;;5018149;28;20492;-56
2021/04/26 07:58:45;;;;;;;1.35;0.80;;;10.00;69.40;;;;;;5019323;28;20022;-57
2021/04/26 08:01:11;;;;;;;1.38;0.40;;;10.20;67.50;;;;;;5018289;28;20025;-58
2021/04/26 08:03:37;;;;;;;2.55;0.57;;;10.40;69.10;;;;;;5016484;28;20033;-59
2021/04/26 08:06:04;;;;;;;0.50;0.50;;;10.60;68.50;;;;;;5016206;28;20043;-58
2021/04/26 08:08:30;;;;;;;0.57;0.40;;;10.60;61.80;;;;;;4999678;28;20108;-58
2021/04/26 08:10:56;;;;;;;0.88;0.43;;;10.60;65.50;;;;;;5053831;22;20044;-54
2021/04/26 08:13:22;;;;;;;0.60;0.35;;;10.50;61.90;;;;;;5037044;28;20027;-49
2021/04/26 08:15:48;;;;;;;1.30;0.65;;;10.40;60.10;;;;;;5037467;28;20017;-58
2021/04/26 08:18:14;;;;;;;3.28;0.82;;;10.30;62.00;;;;;;5037709;28;20047;-60
2021/04/26 08:20:39;;;;;;;3.33;0.73;;;10.40;61.00;;;;;;5021967;28;20408;-51
2021/04/26 08:23:05;;;;;;;2.47;0.38;;;10.60;61.80;;;;;;5015834;28;20843;-56
2021/04/26 08:25:31;;;;;;;0.88;0.60;;;10.40;57.90;;;;;;5014837;28;20075;-54
2021/04/26 08:27:57;;;;;;;2.05;0.70;;;10.30;59.40;;;;;;5018915;28;20439;-53
2021/04/26 08:30:22;;;;;;;1.13;0.75;;;10.10;61.20;;;;;;5018454;28;20049;-57
2021/04/26 08:32:48;;;;;;;0.63;0.50;;;10.20;60.20;;;;;;5018064;28;20052;-51
2021/04/26 08:35:14;;;;;;;3.15;0.73;;;10.20;59.80;;;;;;5018752;28;20222;-53
2021/04/26 08:37:39;;;;;;;2.47;0.65;;;10.50;59.30;;;;;;5018564;28;20024;-52
2021/04/26 08:40:06;;;;;;;2.00;1.23;;;10.70;58.80;;;;;;5019043;28;20396;-53
2021/04/26 08:42:32;;;;;;;0.60;0.38;;;10.80;57.70;;;;;;5018902;28;20030;-53
2021/04/26 08:44:57;;;;;;;2.58;0.50;;;11.00;58.20;;;;;;5018977;28;20021;-53
2021/04/26 08:47:25;;;;;;;5.78;1.13;;;11.20;55.50;;;;;;5018832;28;20026;-53
2021/04/26 08:49:54;;;;;;;1.02;0.68;;;11.40;56.20;;;;;;5017668;28;20139;-57
2021/04/26 08:52:20;;;;;;;1.40;0.50;;;11.40;53.70;;;;;;5017122;28;20021;-55
2021/04/26 08:54:46;;;;;;;0.50;0.50;;;11.50;54.70;;;;;;5017876;28;20030;-51
2021/04/26 08:57:12;;;;;;;1.27;0.80;;;11.40;56.60;;;;;;5017669;28;20022;-55
2021/04/26 08:59:42;;;;;;;2.33;0.80;;;11.60;55.70;;;;;;5017960;28;20053;-56
2021/04/26 09:02:08;;;;;;;1.00;0.60;;;11.80;52.20;;;;;;5018415;28;20369;-55
2021/04/26 09:04:35;;;;;;;0.80;0.77;;;11.80;52.80;;;;;;5017341;28;20033;-52
2021/04/26 09:07:03;;;;;;;0.82;0.50;;;12.00;57.70;;;;;;4999710;28;20079;-55
2021/04/26 09:09:50;;;;;;;1.42;0.70;;;12.40;57.50;;;;;;5017788;28;20022;-57
2021/04/26 09:12:22;;;;;;;2.13;0.80;;;12.60;54.80;;;;;;5018209;28;20018;-57
2021/04/26 09:15:03;;;;;;;0.75;0.50;;;12.70;52.00;;;;;;5018482;28;20109;-54
2021/04/26 09:17:35;;;;;;;0.75;0.60;;;12.90;52.20;;;;;;5018265;28;20018;-54
2021/04/26 09:20:18;;;;;;;2.08;0.82;;;13.10;48.30;;;;;;5017191;28;20029;-55
2021/04/26 09:22:54;;;;;;;5.03;0.63;;;13.20;55.10;;;;;;5018006;28;20024;-53
2021/04/26 09:25:34;;;;;;;1.83;0.95;;;13.60;53.60;;;;;;5017447;28;20043;-55
2021/04/26 09:28:22;;;;;;;1.10;0.90;;;13.90;49.30;;;;;;5017922;28;20022;-51
2021/04/26 09:30:57;;;;;;;1.58;0.95;;;14.10;54.50;;;;;;5016282;28;20105;-53
2021/04/26 09:33:40;;;;;;;2.30;0.93;;;14.40;48.50;;;;;;5016364;28;20030;-52
2021/04/26 09:36:31;;;;;;;0.93;0.88;;;14.60;47.80;;;;;;5016187;28;20046;-56
2021/04/26 09:38:57;;;;;;;1.33;0.55;;;14.60;47.20;;;;;;5016859;28;20017;-54
2021/04/26 09:41:26;;;;;;;1.67;0.65;;;14.00;49.70;;;;;;5015878;28;20475;-54
2021/04/26 09:44:00;;;;;;;1.52;0.63;;;13.60;49.70;;;;;;5017058;28;20433;-52
2021/04/26 09:46:48;;;;;;;1.20;0.82;;;13.20;49.80;;;;;;4999712;28;20030;-56
2021/04/26 09:49:33;;;;;;;0.95;0.68;;;13.00;49.70;;;;;;4998531;28;20119;-53
2021/04/26 09:52:14;;;;;;;2.05;0.80;;;12.50;48.10;;;;;;4999223;28;20053;-53
2021/04/26 09:54:41;;;;;;;1.65;1.17;;;12.20;51.70;;;;;;4999390;28;20024;-55
2021/04/26 09:57:07;;;;;;;2.50;0.80;;;12.30;50.50;;;;;;5017058;28;20017;-51
2021/04/26 09:59:33;;;;;;;0.95;0.88;;;12.20;54.10;;;;;;5016946;28;20029;-51
2021/04/26 10:02:00;;;;;;;2.00;1.30;;;12.20;52.80;;;;;;5016301;28;20091;-53
2021/04/26 10:04:26;;;;;;;1.92;0.55;;;12.30;50.90;;;;;;5017255;28;20104;-55
2021/04/26 10:06:52;;;;;;;0.93;0.90;;;12.30;52.50;;;;;;5013215;28;20030;-54
2021/04/26 10:09:19;;;;;;;2.90;0.90;;;12.40;49.50;;;;;;5013691;28;20045;-57
2021/04/26 10:11:45;;;;;;;1.13;0.90;;;12.70;50.90;;;;;;5013335;28;20117;-54
2021/04/26 10:14:14;;;;;;;1.17;0.77;;;13.10;47.00;;;;;;5013898;28;20128;-53
2021/04/26 10:16:44;;;;;;;1.42;0.98;;;13.30;48.20;;;;;;5011614;28;20022;-50
2021/04/26 10:19:15;;;;;;;1.25;1.00;;;13.40;53.00;;;;;;5010459;28;20044;-54
2021/04/26 10:21:51;;;;;;;3.65;1.00;;;13.30;47.70;;;;;;5011358;28;20022;-56
2021/04/26 10:24:21;;;;;;;;;;;13.10;48.80;;;;;;5011504;28;20460;-56
2021/04/26 10:26:49;;;;;;;1.15;0.75;;;13.00;52.50;;;;;;5009811;28;20272;-54
2021/04/26 10:29:17;;;;;;;1.15;0.70;;;13.10;50.70;;;;;;5010463;28;20137;-52
2021/04/26 10:32:00;;;;;;;2.28;0.98;;;12.90;48.80;;;;;;5016863;28;20087;-57
2021/04/26 10:34:28;;;;;;;0.88;0.75;;;13.00;48.00;;;;;;5019123;28;20029;-53
2021/04/26 10:36:56;;;;;;;2.10;1.13;;;13.30;46.20;;;;;;5020231;28;20092;-56
2021/04/26 10:39:24;;;;;;;0.95;0.90;;;13.30;46.90;;;;;;5019325;28;20097;-49
2021/04/26 10:41:57;;;;;;;1.50;0.82;;;13.40;46.20;;;;;;5018390;28;20099;-55
2021/04/26 10:44:41;;;;;;;1.75;0.85;;;13.70;47.60;;;;;;5019989;28;20144;-57
2021/04/26 10:47:33;;;;;;;1.63;0.85;;;14.10;46.30;;;;;;5019283;28;20022;-54
2021/04/26 10:50:05;;;;;;;2.17;1.33;;;14.40;44.60;;;;;;5000042;28;20045;-54
2021/04/26 10:52:33;;;;;;;1.67;0.90;;;14.60;48.90;;;;;;5018070;28;20387;-57
2021/04/26 10:54:58;;;;;;;1.42;0.85;;;15.00;47.30;;;;;;5016547;28;20044;-54
2021/04/26 10:57:40;;;;;;;3.08;1.13;;;15.30;46.70;;;;;;5018026;28;20439;-54
2021/04/26 11:00:25;;;;;;;1.75;0.90;;;15.70;47.10;;;;;;5019765;28;20036;-56
2021/04/26 11:02:52;;;;;;;3.33;1.00;;;16.00;47.50;;;;;;5019391;28;20068;-49
2021/04/26 11:05:22;;;;;;;1.65;1.08;;;15.80;43.60;;;;;;5019158;28;20062;-56
2021/04/26 11:07:55;;;;;;;1.40;1.00;;;15.90;44.80;;;;;;5001856;28;20013;-52
2021/04/26 11:10:31;;;;;;;1.27;1.02;;;15.50;39.10;;;;;;5020272;28;20034;-53
2021/04/26 11:12:59;;;;;;;1.52;0.90;;;14.50;43.10;;;;;;5020025;28;20033;-55
2021/04/26 11:15:25;;;;;;;1.23;1.13;;;14.00;41.50;;;;;;5020733;28;20064;-55
2021/04/26 11:17:52;;;;;;;1.35;1.10;;;13.60;41.40;;;;;;5019011;28;20030;-54
2021/04/26 11:20:23;;;;;;;2.78;0.98;;;13.10;42.00;;;;;;5019984;28;20028;-56
2021/04/26 11:22:53;;;;;;;2.42;1.13;;;12.70;43.60;;;;;;5019822;28;20507;-53
2021/04/26 11:25:39;;;;;;;1.73;1.20;;;12.60;45.30;;;;;;5020073;28;20030;-52
2021/04/26 11:28:06;;;;;;;1.45;0.90;;;12.90;44.10;;;;;;5019494;28;20030;-50
2021/04/26 11:30:34;;;;;;;1.10;0.82;;;12.90;44.20;;;;;;5018874;28;20028;-50
2021/04/26 11:33:08;;;;;;;1.23;0.80;;;13.10;43.20;;;;;;5018366;28;20052;-53
2021/04/26 11:35:38;;;;;;;1.65;1.10;;;13.10;42.60;;;;;;5019345;28;20500;-53
2021/04/26 11:38:04;;;;;;;1.38;0.90;;;13.10;42.70;;;;;;5019156;28;20018;-54
2021/04/26 11:40:32;;;;;;;1.70;0.98;;;13.00;42.80;;;;;;5019566;28;20032;-53
2021/04/26 11:43:08;;;;;;;0.77;0.77;;;13.00;44.00;;;;;;4997830;28;20391;-50
2021/04/26 11:45:36;;;;;;;2.38;1.10;;;13.00;44.80;;;;;;5019476;28;20153;-56
2021/04/26 11:48:02;;;;;;;3.42;1.23;;;13.10;46.10;;;;;;5020091;28;20018;-56
2021/04/26 11:50:28;;;;;;;0.88;0.80;;;13.10;43.80;;;;;;5019342;28;20026;-50
2021/04/26 11:52:54;;;;;;;1.20;1.00;;;13.00;44.70;;;;;;5019020;28;20111;-55
2021/04/26 11:55:23;;;;;;;2.03;1.00;;;13.00;44.70;;;;;;5019447;28;20084;-53
2021/04/26 11:57:54;;;;;;;1.92;1.33;;;12.50;45.50;;;;;;5002087;28;20084;-50
2021/04/26 12:00:30;;;;;;;2.33;1.17;;;12.50;45.40;;;;;;5018934;28;20108;-54
2021/04/26 12:03:04;;;;;;;2.30;0.90;;;12.50;45.40;;;;;;5001509;28;20038;-54
2021/04/26 12:05:30;;;;;;;1.83;1.15;;;12.70;44.90;;;;;;5019776;28;20025;-51
2021/04/26 12:07:56;;;;;;;1.33;0.80;;;12.70;45.10;;;;;;5019423;28;20902;-55
2021/04/26 12:10:24;;;;;;;1.02;0.90;;;12.80;45.10;;;;;;5017452;28;20041;-51
2021/04/26 12:13:00;;;;;;;1.73;0.70;;;12.70;45.00;;;;;;5019060;28;20072;-53
2021/04/26 12:15:27;;;;;;;4.53;1.17;;;12.70;46.40;;;;;;5019132;28;20044;-52
2021/04/26 12:17:55;;;;;;;2.05;0.95;;;12.60;44.80;;;;;;5018275;28;20033;-53
2021/04/26 12:20:36;;;;;;;2.05;1.08;;;12.50;44.70;;;;;;5018847;28;20025;-50
2021/04/26 12:23:16;;;;;;;4.13;1.02;;;12.60;45.30;;;;;;5018339;28;20025;-53
2021/04/26 12:25:45;;;;;;;1.05;1.00;;;12.70;46.00;;;;;;5017408;28;20033;-51
2021/04/26 12:28:13;;;;;;;1.05;0.82;;;12.50;44.40;;;;;;5015385;28;20088;-53
2021/04/26 12:30:43;;;;;;;3.17;1.17;;;12.50;45.00;;;;;;5021520;28;20027;-54
2021/04/26 12:33:31;;;;;;;1.02;0.90;;;12.50;46.00;;;;;;5017082;28;20036;-54
2021/04/26 12:36:00;;;;;;;0.77;0.73;;;12.50;45.80;;;;;;5018734;28;20154;-54
2021/04/26 12:38:28;;;;;;;0.93;0.90;;;12.70;48.40;;;;;;5018615;28;20021;-50
2021/04/26 12:40:54;;;;;;;4.07;1.25;;;12.90;46.00;;;;;;5018194;28;20384;-57
2021/04/26 12:43:20;;;;;;;1.50;0.82;;;13.10;49.70;;;;;;5017293;28;20034;-53
2021/04/26 12:45:49;;;;;;;2.00;1.02;;;13.20;46.60;;;;;;5019286;28;20052;-55
2021/04/26 12:48:19;;;;;;;1.10;1.00;;;13.30;43.10;;;;;;5017594;28;20025;-56
2021/04/26 12:50:50;;;;;;;1.17;0.82;;;13.30;44.00;;;;;;5017319;28;20503;-53
2021/04/26 12:53:15;;;;;;;1.95;1.20;;;13.00;44.60;;;;;;5017641;28;20107;-54
2021/04/26 12:55:54;;;;;;;1.83;1.08;;;12.70;44.50;;;;;;5018506;28;20045;-54
2021/04/26 12:58:30;;;;;;;1.63;0.80;;;12.50;44.20;;;;;;5019428;28;20417;-51